createdAt,value
2022-11-29T00:02:59.044Z,101029.93
2022-11-29T00:06:29.171Z,101029.70
2022-11-29T00:09:55.831Z,101028.47
2022-11-29T00:13:22.499Z,101027.21
2022-11-29T00:16:53.415Z,101025.41
2022-11-29T00:20:20.189Z,101019.66
2022-11-29T00:23:47.309Z,101020.75
2022-11-29T00:27:14.129Z,101025.61
2022-11-29T00:30:41.212Z,101023.11
2022-11-29T00:34:08.925Z,101021.31
2022-11-29T00:37:35.880Z,101024.47
2022-11-29T00:41:02.588Z,101023.65
2022-11-29T00:44:29.633Z,101025.68
2022-11-29T00:47:56.282Z,101024.02
2022-11-29T00:51:22.931Z,101027.54
2022-11-29T00:54:49.988Z,101023.33
2022-11-29T00:58:17.012Z,101018.42
2022-11-29T01:01:44.275Z,101019.66
2022-11-29T01:05:11.541Z,101019.29
2022-11-29T01:08:38.957Z,101020.25
2022-11-29T01:12:05.952Z,101018.82
2022-11-29T01:15:32.974Z,101020.83
2022-11-29T01:19:00.476Z,101019.17
2022-11-29T01:22:27.575Z,101019.64
2022-11-29T01:26:01.445Z,101019.45
2022-11-29T01:29:28.331Z,101020.41
2022-11-29T01:32:55.050Z,101016.10
2022-11-29T01:36:21.792Z,101018.67
2022-11-29T01:39:48.467Z,101021.60
2022-11-29T01:43:19.644Z,101015.19
2022-11-29T01:46:48.316Z,101015.94
2022-11-29T01:50:15.653Z,101017.39
2022-11-29T01:53:42.779Z,101013.52
2022-11-29T01:57:10.957Z,101011.73
2022-11-29T02:00:38.280Z,101015.11
2022-11-29T02:04:06.606Z,101011.36
2022-11-29T02:07:33.606Z,101006.45
2022-11-29T02:11:30.174Z,101007.35
2022-11-29T02:15:25.985Z,101008.02
2022-11-29T02:19:04.252Z,101010.83
2022-11-29T02:22:34.444Z,101006.73
2022-11-29T02:26:16.495Z,101004.38
2022-11-29T02:30:14.397Z,101006.89
2022-11-29T02:34:12.021Z,101012.27
2022-11-29T02:37:58.309Z,101010.94
2022-11-29T02:41:39.452Z,101016.56
2022-11-29T02:45:11.397Z,101018.38
2022-11-29T02:48:54.238Z,101018.30
2022-11-29T02:52:27.388Z,101025.50
2022-11-29T02:56:04.439Z,101029.77
2022-11-29T02:59:42.615Z,101027.48
2022-11-29T03:03:16.321Z,101031.20
2022-11-29T03:06:51.572Z,101028.70
2022-11-29T03:10:30.760Z,101031.92
2022-11-29T03:14:13.019Z,101029.42
2022-11-29T03:17:55.101Z,101037.44
2022-11-29T03:21:35.956Z,101031.60
2022-11-29T03:25:09.074Z,101035.27
2022-11-29T03:28:40.499Z,101035.52
2022-11-29T03:32:13.898Z,101044.17
2022-11-29T03:35:47.952Z,101041.66
2022-11-29T03:39:31.638Z,101041.92
2022-11-29T03:43:03.141Z,101041.64
2022-11-29T03:46:36.105Z,101044.84
2022-11-29T03:50:08.575Z,101045.97
2022-11-29T03:53:43.040Z,101043.67
2022-11-29T03:57:11.047Z,101044.15
2022-11-29T04:00:57.897Z,101045.77
2022-11-29T04:04:56.069Z,101049.31
2022-11-29T04:08:53.989Z,101049.47
2022-11-29T04:13:07.102Z,101056.19
2022-11-29T04:17:00.352Z,101061.06
2022-11-29T04:21:06.356Z,101062.88
2022-11-29T04:24:51.441Z,101062.83
2022-11-29T04:28:52.670Z,101067.66
2022-11-29T04:32:49.686Z,101073.52
2022-11-29T04:36:39.748Z,101077.12
2022-11-29T04:40:28.275Z,101069.86
2022-11-29T04:44:13.753Z,101070.02
2022-11-29T04:47:58.815Z,101072.39
2022-11-29T04:51:42.261Z,101070.83
2022-11-29T04:55:29.277Z,101073.72
2022-11-29T04:59:05.282Z,101080.11
2022-11-29T05:02:37.438Z,101087.39
2022-11-29T05:20:02.071Z,101088.56
2022-11-29T05:23:43.798Z,101094.13
2022-11-29T05:27:17.810Z,101102.36
2022-11-29T05:31:04.339Z,101099.21
2022-11-29T05:34:45.094Z,101104.58
2022-11-29T05:38:21.656Z,101111.36
2022-11-29T05:42:05.242Z,101116.60
2022-11-29T05:45:36.705Z,101117.09
2022-11-29T05:49:18.695Z,101117.95
2022-11-29T05:52:55.976Z,101116.73
2022-11-29T05:56:32.981Z,101121.87
2022-11-29T06:00:03.566Z,101129.26
2022-11-29T06:03:44.821Z,101132.84
2022-11-29T06:07:19.019Z,101135.30
2022-11-29T06:10:57.680Z,101134.98
2022-11-29T06:14:44.801Z,101137.98
2022-11-29T06:18:34.311Z,101144.81
2022-11-29T06:22:15.058Z,101147.94
2022-11-29T06:26:04.059Z,101154.60
2022-11-29T06:29:43.370Z,101159.68
2022-11-29T06:33:18.084Z,101165.44
2022-11-29T06:36:49.633Z,101164.66
2022-11-29T06:40:18.420Z,101169.52
2022-11-29T06:43:46.264Z,101166.65
2022-11-29T06:47:20.397Z,101172.67
2022-11-29T06:50:55.246Z,101171.39
2022-11-29T06:54:35.671Z,101171.02
2022-11-29T06:58:13.553Z,101175.30
2022-11-29T07:01:47.002Z,101177.79
2022-11-29T07:05:21.509Z,101175.14
2022-11-29T07:08:50.312Z,101174.72
2022-11-29T07:12:18.857Z,101176.45
2022-11-29T07:16:01.098Z,101184.19
2022-11-29T07:19:36.973Z,101186.92
2022-11-29T07:23:11.968Z,101188.14
2022-11-29T07:26:47.600Z,101200.84
2022-11-29T07:30:19.604Z,101194.59
2022-11-29T07:33:59.708Z,101196.77
2022-11-29T07:37:37.170Z,101197.71
2022-11-29T07:41:11.374Z,101203.91
2022-11-29T07:44:47.470Z,101213.80
2022-11-29T07:48:17.436Z,101213.50
2022-11-29T07:51:44.561Z,101216.41
2022-11-29T07:55:18.624Z,101218.79
2022-11-29T07:58:46.101Z,101209.78
2022-11-29T08:02:14.415Z,101213.31
2022-11-29T08:05:41.779Z,101213.53
2022-11-29T08:09:08.834Z,101214.94
2022-11-29T08:12:35.718Z,101214.95
2022-11-29T08:16:02.531Z,101222.89
2022-11-29T08:19:29.429Z,101219.69
2022-11-29T08:23:00.661Z,101222.99
2022-11-29T08:26:31.689Z,101221.56
2022-11-29T08:29:59.035Z,101230.27
2022-11-29T08:33:26.138Z,101228.09
2022-11-29T08:36:55.597Z,101226.66
2022-11-29T08:40:23.970Z,101230.92
2022-11-29T08:43:50.982Z,101225.48
2022-11-29T08:47:35.558Z,101236.17
2022-11-29T08:51:02.894Z,101232.38
2022-11-29T08:54:30.007Z,101232.59
2022-11-29T08:58:04.433Z,101234.20
2022-11-29T09:01:31.333Z,101237.25
2022-11-29T09:04:58.386Z,101237.48
2022-11-29T09:08:25.262Z,101241.16
2022-11-29T09:11:52.020Z,101246.19
2022-11-29T09:15:19.813Z,101245.52
2022-11-29T09:18:51.954Z,101247.63
2022-11-29T09:22:19.092Z,101246.20
2022-11-29T09:25:50.747Z,101244.49
2022-11-29T09:29:18.741Z,101248.85
2022-11-29T09:32:46.642Z,101254.63
2022-11-29T09:36:14.612Z,101252.54
2022-11-29T09:39:42.092Z,101251.61
2022-11-29T09:43:18.883Z,101255.53
2022-11-29T09:46:58.850Z,101257.67
2022-11-29T09:50:34.324Z,101258.59
2022-11-29T09:54:15.898Z,101255.05
2022-11-29T09:57:44.896Z,101252.59
2022-11-29T10:01:19.926Z,101249.39
2022-11-29T10:04:49.780Z,101244.85
2022-11-29T10:08:19.448Z,101245.06
2022-11-29T10:12:03.425Z,101246.80
2022-11-29T10:15:33.171Z,101250.31
2022-11-29T10:19:05.913Z,101249.73
2022-11-29T10:22:40.818Z,101248.52
2022-11-29T10:26:08.448Z,101255.61
2022-11-29T10:29:35.821Z,101257.15
2022-11-29T10:33:02.890Z,101257.39
2022-11-29T10:36:35.433Z,101254.45
2022-11-29T10:40:08.059Z,101262.72
2022-11-29T10:43:37.474Z,101262.04
2022-11-29T10:47:10.653Z,101266.36
2022-11-29T10:50:41.833Z,101265.95
2022-11-29T10:54:29.935Z,101263.02
2022-11-29T10:58:28.739Z,101264.70
2022-11-29T11:01:56.813Z,101265.80
2022-11-29T11:05:28.507Z,101272.50
2022-11-29T11:08:57.384Z,101276.64
2022-11-29T11:12:27.899Z,101277.91
2022-11-29T11:15:59.512Z,101279.86
2022-11-29T11:19:34.523Z,101276.77
2022-11-29T11:23:04.526Z,101276.22
2022-11-29T11:26:45.366Z,101273.50
2022-11-29T11:30:22.711Z,101269.50
2022-11-29T11:33:49.444Z,101275.30
2022-11-29T11:37:24.633Z,101276.55
2022-11-29T11:41:01.501Z,101279.75
2022-11-29T11:44:51.995Z,101274.14
2022-11-29T11:48:20.378Z,101277.38
2022-11-29T11:51:47.397Z,101279.22
2022-11-29T11:55:33.544Z,101277.85
2022-11-29T11:59:00.601Z,101281.87
2022-11-29T12:02:37.561Z,101283.52
2022-11-29T12:06:22.018Z,101286.51
2022-11-29T12:09:54.142Z,101287.46
2022-11-29T12:13:26.445Z,101290.77
2022-11-29T12:17:02.256Z,101292.02
2022-11-29T12:20:33.819Z,101291.08
2022-11-29T12:24:05.073Z,101289.20
2022-11-29T12:27:33.164Z,101291.57
2022-11-29T12:31:08.934Z,101290.33
2022-11-29T12:34:49.848Z,101290.31
2022-11-29T12:38:34.382Z,101290.94
2022-11-29T12:42:10.531Z,101296.91
2022-11-29T12:45:49.189Z,101300.79
2022-11-29T12:49:23.000Z,101303.98
2022-11-29T12:53:01.767Z,101308.30
2022-11-29T12:56:34.851Z,101307.15
2022-11-29T13:00:13.127Z,101316.54
2022-11-29T13:03:45.885Z,101314.67
2022-11-29T13:07:22.310Z,101319.29
2022-11-29T13:11:07.159Z,101317.31
2022-11-29T13:14:55.341Z,101320.53
2022-11-29T13:18:29.199Z,101322.65
2022-11-29T13:22:07.363Z,101324.39
2022-11-29T13:25:38.369Z,101326.27
2022-11-29T13:29:07.455Z,101331.21
2022-11-29T13:32:41.248Z,101332.61
2022-11-29T13:36:16.354Z,101331.94
2022-11-29T13:40:00.555Z,101336.20
2022-11-29T13:43:34.130Z,101338.72
2022-11-29T13:47:08.187Z,101341.05
2022-11-29T13:50:44.090Z,101350.09
2022-11-29T13:54:31.973Z,101347.70
2022-11-29T13:58:20.175Z,101352.23
2022-11-29T14:01:50.336Z,101353.52
2022-11-29T14:05:27.984Z,101354.79
2022-11-29T14:09:34.416Z,101357.56
2022-11-29T14:13:01.986Z,101357.14
2022-11-29T14:16:36.917Z,101361.88
2022-11-29T14:20:36.448Z,101365.30
2022-11-29T14:24:23.505Z,101363.12
2022-11-29T14:28:23.185Z,101369.73
2022-11-29T14:31:49.337Z,101371.21
2022-11-29T14:35:24.137Z,101374.59
2022-11-29T14:38:59.757Z,101375.17
2022-11-29T14:42:28.559Z,101376.25
2022-11-29T14:46:10.112Z,101380.27
2022-11-29T14:49:44.014Z,101378.03
2022-11-29T14:53:34.023Z,101382.36
2022-11-29T14:57:20.702Z,101381.03
2022-11-29T15:01:09.606Z,101387.84
2022-11-29T15:04:39.577Z,101388.55
2022-11-29T15:08:14.444Z,101388.50
2022-11-29T15:11:52.618Z,101393.04
2022-11-29T15:15:39.080Z,101399.52
2022-11-29T15:19:21.071Z,101403.66
2022-11-29T15:22:53.360Z,101399.63
2022-11-29T15:26:22.341Z,101403.81
2022-11-29T15:29:49.235Z,101403.67
2022-11-29T15:33:22.487Z,101405.36
2022-11-29T15:36:49.123Z,101410.44
2022-11-29T15:40:18.499Z,101407.09
2022-11-29T15:43:48.813Z,101407.38
2022-11-29T15:47:23.894Z,101408.06
2022-11-29T15:50:57.501Z,101408.77
2022-11-29T15:54:31.785Z,101415.02
2022-11-29T15:58:08.342Z,101412.88
2022-11-29T16:01:37.284Z,101413.96
2022-11-29T16:05:10.288Z,101413.23
2022-11-29T16:08:42.833Z,101418.67
2022-11-29T16:12:13.096Z,101415.08
2022-11-29T16:15:41.520Z,101415.81
2022-11-29T16:19:31.500Z,101418.21
2022-11-29T16:23:13.029Z,101423.89
2022-11-29T16:26:42.902Z,101430.09
2022-11-29T16:30:22.356Z,101431.29
2022-11-29T16:33:51.127Z,101435.42
2022-11-29T16:37:21.527Z,101434.92
2022-11-29T16:41:04.474Z,101436.44
2022-11-29T16:45:02.214Z,101437.77
2022-11-29T16:48:38.207Z,101440.64
2022-11-29T16:52:24.306Z,101445.27
2022-11-29T16:55:53.533Z,101452.40
2022-11-29T16:59:26.505Z,101447.77
2022-11-29T17:02:55.381Z,101453.20
2022-11-29T17:06:25.311Z,101457.39
2022-11-29T17:09:52.416Z,101456.87
2022-11-29T17:13:19.217Z,101454.98
2022-11-29T17:16:49.166Z,101457.40
2022-11-29T17:20:16.794Z,101460.63
2022-11-29T17:23:43.737Z,101464.59
2022-11-29T17:27:10.979Z,101464.84
2022-11-29T17:30:38.128Z,101471.76
2022-11-29T17:34:05.061Z,101472.34
2022-11-29T17:37:32.803Z,101475.41
2022-11-29T17:40:59.425Z,101478.83
2022-11-29T17:44:26.222Z,101481.00
2022-11-29T17:47:53.428Z,101480.60
2022-11-29T17:51:50.431Z,101480.41
2022-11-29T17:55:11.983Z,101475.18
2022-11-29T17:58:39.463Z,101475.42
2022-11-29T18:02:06.171Z,101475.67
2022-11-29T18:05:34.881Z,101478.96
2022-11-29T18:09:03.707Z,101479.48
2022-11-29T18:12:30.408Z,101480.32
2022-11-29T18:16:02.222Z,101480.88
2022-11-29T18:19:29.923Z,101483.77
2022-11-29T18:22:56.624Z,101489.09
2022-11-29T18:26:25.369Z,101493.80
2022-11-29T18:29:52.211Z,101494.84
2022-11-29T18:33:18.846Z,101493.63
2022-11-29T18:36:47.698Z,101492.00
2022-11-29T18:40:16.057Z,101491.97
2022-11-29T18:43:43.261Z,101493.00
2022-11-29T18:47:09.949Z,101496.32
2022-11-29T18:50:36.734Z,101499.33
2022-11-29T18:54:04.196Z,101499.64
2022-11-29T18:57:31.382Z,101503.55
2022-11-29T19:01:05.415Z,101500.06
2022-11-29T19:04:32.521Z,101500.80
2022-11-29T19:07:59.534Z,101502.33
2022-11-29T19:11:29.447Z,101502.81
2022-11-29T19:14:56.478Z,101500.23
2022-11-29T19:18:24.263Z,101502.68
2022-11-29T19:21:51.182Z,101503.05
2022-11-29T19:25:18.363Z,101503.86
2022-11-29T19:28:46.619Z,101510.09
2022-11-29T19:32:13.542Z,101509.04
2022-11-29T19:35:43.532Z,101510.75
2022-11-29T19:39:11.152Z,101512.94
2022-11-29T19:42:37.817Z,101515.14
2022-11-29T19:46:11.182Z,101517.89
2022-11-29T19:49:43.483Z,101526.04
2022-11-29T19:53:13.007Z,101520.41
2022-11-29T19:56:40.387Z,101525.04
2022-11-29T20:00:09.712Z,101527.44
2022-11-29T20:03:40.333Z,101528.95
2022-11-29T20:07:07.276Z,101527.77
2022-11-29T20:10:34.426Z,101530.96
2022-11-29T20:14:02.972Z,101529.71
2022-11-29T20:17:29.846Z,101529.30
2022-11-29T20:20:56.517Z,101533.09
2022-11-29T20:24:23.355Z,101533.09
2022-11-29T20:27:51.059Z,101536.34
2022-11-29T20:31:21.336Z,101537.24
2022-11-29T20:34:49.893Z,101539.05
2022-11-29T20:38:32.277Z,101533.63
2022-11-29T20:42:18.687Z,101533.23
2022-11-29T20:45:46.859Z,101537.82
2022-11-29T20:49:17.309Z,101540.96
2022-11-29T20:52:50.103Z,101545.00
2022-11-29T20:56:17.117Z,101543.85
2022-11-29T20:59:44.387Z,101545.24
2022-11-29T21:03:15.755Z,101544.91
2022-11-29T21:06:42.850Z,101544.42
2022-11-29T21:10:11.624Z,101547.14
2022-11-29T21:13:41.258Z,101551.24
2022-11-29T21:17:07.282Z,101550.94
2022-11-29T21:20:35.046Z,101555.42
2022-11-29T21:24:08.767Z,101557.63
2022-11-29T21:27:37.961Z,101558.68
2022-11-29T21:31:06.320Z,101559.38
2022-11-29T21:34:34.067Z,101559.70
2022-11-29T21:38:02.840Z,101561.62
2022-11-29T21:41:29.546Z,101561.89
2022-11-29T21:44:56.184Z,101564.10
2022-11-29T21:48:39.162Z,101566.66
2022-11-29T21:52:06.970Z,101563.52
2022-11-29T21:55:33.621Z,101558.94
2022-11-29T21:59:00.199Z,101563.09
2022-11-29T22:02:27.199Z,101564.86
2022-11-29T22:05:54.570Z,101564.08
2022-11-29T22:09:21.624Z,101567.89
2022-11-29T22:12:52.316Z,101569.06
2022-11-29T22:16:19.374Z,101568.14
2022-11-29T22:19:46.224Z,101569.23
2022-11-29T22:23:13.429Z,101565.87
2022-11-29T22:26:40.903Z,101566.55
2022-11-29T22:30:09.754Z,101567.46
2022-11-29T22:33:37.560Z,101564.42
2022-11-29T22:37:04.318Z,101564.64
2022-11-29T22:40:31.264Z,101564.77
2022-11-29T22:43:58.209Z,101567.60
2022-11-29T22:47:25.256Z,101567.70
2022-11-29T22:50:51.892Z,101566.95
2022-11-29T22:54:18.639Z,101562.45
2022-11-29T22:57:45.645Z,101564.17
2022-11-29T23:01:15.131Z,101566.77
2022-11-29T23:04:40.413Z,101565.52
2022-11-29T23:08:07.603Z,101568.59
2022-11-29T23:11:35.082Z,101571.83
2022-11-29T23:15:02.935Z,101567.63
2022-11-29T23:18:29.782Z,101569.87
2022-11-29T23:21:56.585Z,101567.28
2022-11-29T23:25:23.247Z,101565.52
2022-11-29T23:28:50.704Z,101565.64
2022-11-29T23:32:17.377Z,101569.02
2022-11-29T23:35:44.295Z,101573.58
2022-11-29T23:39:11.506Z,101572.29
2022-11-29T23:42:38.142Z,101577.41
2022-11-29T23:46:10.020Z,101578.55
2022-11-29T23:49:39.921Z,101577.11
2022-11-29T23:53:06.979Z,101570.97
